sensor_id;sensor_type;location;lat;lon;timestamp;P1;durP1;ratioP1;P2;durP2;ratioP2
76729;SDS011;65653;53.106;18.046;2023-05-07T00:01:31;24.00;;;13.50;;
76729;SDS011;65653;53.106;18.046;2023-05-07T00:03:57;19.70;;;12.00;;
76729;SDS011;65653;53.106;18.046;2023-05-07T00:06:24;20.30;;;12.80;;
76729;SDS011;65653;53.106;18.046;2023-05-07T00:08:52;20.00;;;11.70;;
76729;SDS011;65653;53.106;18.046;2023-05-07T00:11:19;19.20;;;12.20;;
76729;SDS011;65653;53.106;18.046;2023-05-07T00:13:46;19.60;;;12.30;;
76729;SDS011;65653;53.106;18.046;2023-05-07T00:16:16;22.60;;;12.10;;
76729;SDS011;65653;53.106;18.046;2023-05-07T00:18:43;20.50;;;12.00;;
76729;SDS011;65653;53.106;18.046;2023-05-07T00:21:10;20.00;;;12.00;;
76729;SDS011;65653;53.106;18.046;2023-05-07T00:23:37;20.00;;;11.70;;
76729;SDS011;65653;53.106;18.046;2023-05-07T00:26:03;20.50;;;12.60;;
76729;SDS011;65653;53.106;18.046;2023-05-07T00:28:30;20.60;;;11.40;;
76729;SDS011;65653;53.106;18.046;2023-05-07T00:30:57;22.80;;;12.90;;
76729;SDS011;65653;53.106;18.046;2023-05-07T00:33:23;20.80;;;12.60;;
76729;SDS011;65653;53.106;18.046;2023-05-07T00:35:52;18.40;;;10.50;;
76729;SDS011;65653;53.106;18.046;2023-05-07T00:38:21;20.80;;;11.90;;
76729;SDS011;65653;53.106;18.046;2023-05-07T00:40:47;17.70;;;10.80;;
76729;SDS011;65653;53.106;18.046;2023-05-07T00:43:14;22.10;;;12.50;;
76729;SDS011;65653;53.106;18.046;2023-05-07T00:45:41;18.60;;;11.60;;
76729;SDS011;65653;53.106;18.046;2023-05-07T00:48:07;20.40;;;10.90;;
76729;SDS011;65653;53.106;18.046;2023-05-07T00:50:34;20.40;;;11.50;;
76729;SDS011;65653;53.106;18.046;2023-05-07T00:53:00;25.30;;;13.40;;
76729;SDS011;65653;53.106;18.046;2023-05-07T00:55:27;25.20;;;13.70;;
76729;SDS011;65653;53.106;18.046;2023-05-07T00:57:54;25.10;;;13.60;;
76729;SDS011;65653;53.106;18.046;2023-05-07T01:00:21;23.30;;;13.10;;
76729;SDS011;65653;53.106;18.046;2023-05-07T01:02:48;24.10;;;13.10;;
76729;SDS011;65653;53.106;18.046;2023-05-07T01:05:15;23.30;;;12.30;;
76729;SDS011;65653;53.106;18.046;2023-05-07T01:07:45;25.90;;;13.20;;
76729;SDS011;65653;53.106;18.046;2023-05-07T01:10:12;22.30;;;12.60;;
76729;SDS011;65653;53.106;18.046;2023-05-07T01:12:40;25.50;;;13.50;;
76729;SDS011;65653;53.106;18.046;2023-05-07T01:15:08;24.50;;;14.80;;
76729;SDS011;65653;53.106;18.046;2023-05-07T01:17:36;23.70;;;14.20;;
76729;SDS011;65653;53.106;18.046;2023-05-07T01:20:04;28.90;;;14.60;;
76729;SDS011;65653;53.106;18.046;2023-05-07T01:22:34;26.50;;;15.60;;
76729;SDS011;65653;53.106;18.046;2023-05-07T01:25:03;26.50;;;14.80;;
76729;SDS011;65653;53.106;18.046;2023-05-07T01:27:30;28.40;;;15.00;;
76729;SDS011;65653;53.106;18.046;2023-05-07T01:29:57;30.40;;;16.20;;
76729;SDS011;65653;53.106;18.046;2023-05-07T01:32:28;29.20;;;16.00;;
76729;SDS011;65653;53.106;18.046;2023-05-07T01:34:59;28.30;;;15.70;;
76729;SDS011;65653;53.106;18.046;2023-05-07T01:37:29;29.20;;;16.00;;
76729;SDS011;65653;53.106;18.046;2023-05-07T01:39:56;33.70;;;17.50;;
76729;SDS011;65653;53.106;18.046;2023-05-07T01:42:23;30.40;;;17.10;;
76729;SDS011;65653;53.106;18.046;2023-05-07T01:44:50;36.00;;;18.60;;
76729;SDS011;65653;53.106;18.046;2023-05-07T01:47:17;36.10;;;18.40;;
76729;SDS011;65653;53.106;18.046;2023-05-07T01:49:43;36.60;;;18.00;;
76729;SDS011;65653;53.106;18.046;2023-05-07T01:52:10;36.80;;;19.40;;
76729;SDS011;65653;53.106;18.046;2023-05-07T01:54:37;38.60;;;20.20;;
76729;SDS011;65653;53.106;18.046;2023-05-07T01:57:04;40.20;;;19.50;;
76729;SDS011;65653;53.106;18.046;2023-05-07T01:59:30;37.70;;;18.80;;
76729;SDS011;65653;53.106;18.046;2023-05-07T02:01:57;39.50;;;19.40;;
76729;SDS011;65653;53.106;18.046;2023-05-07T02:04:23;36.80;;;19.20;;
76729;SDS011;65653;53.106;18.046;2023-05-07T02:06:50;36.60;;;18.60;;
76729;SDS011;65653;53.106;18.046;2023-05-07T02:09:17;38.40;;;19.80;;
76729;SDS011;65653;53.106;18.046;2023-05-07T02:11:44;43.90;;;20.30;;
76729;SDS011;65653;53.106;18.046;2023-05-07T02:14:11;41.70;;;20.70;;
76729;SDS011;65653;53.106;18.046;2023-05-07T02:16:38;38.50;;;19.90;;
76729;SDS011;65653;53.106;18.046;2023-05-07T02:19:04;44.40;;;20.60;;
76729;SDS011;65653;53.106;18.046;2023-05-07T02:21:31;44.00;;;19.80;;
76729;SDS011;65653;53.106;18.046;2023-05-07T02:23:57;33.40;;;17.80;;
76729;SDS011;65653;53.106;18.046;2023-05-07T02:26:24;36.80;;;18.50;;
76729;SDS011;65653;53.106;18.046;2023-05-07T02:28:52;33.10;;;18.50;;
76729;SDS011;65653;53.106;18.046;2023-05-07T02:31:19;37.70;;;18.50;;
76729;SDS011;65653;53.106;18.046;2023-05-07T02:33:45;39.70;;;18.10;;
76729;SDS011;65653;53.106;18.046;2023-05-07T02:36:12;35.70;;;18.90;;
76729;SDS011;65653;53.106;18.046;2023-05-07T02:38:40;38.40;;;18.10;;
76729;SDS011;65653;53.106;18.046;2023-05-07T02:41:06;40.00;;;17.80;;
76729;SDS011;65653;53.106;18.046;2023-05-07T02:43:32;42.10;;;19.20;;
76729;SDS011;65653;53.106;18.046;2023-05-07T02:46:05;42.30;;;19.90;;
76729;SDS011;65653;53.106;18.046;2023-05-07T02:48:33;43.80;;;21.30;;
76729;SDS011;65653;53.106;18.046;2023-05-07T02:51:00;40.20;;;20.70;;
76729;SDS011;65653;53.106;18.046;2023-05-07T02:53:29;44.00;;;20.80;;
76729;SDS011;65653;53.106;18.046;2023-05-07T02:55:56;44.10;;;22.20;;
76729;SDS011;65653;53.106;18.046;2023-05-07T02:58:23;45.30;;;21.30;;
76729;SDS011;65653;53.106;18.046;2023-05-07T03:00:51;46.10;;;22.30;;
76729;SDS011;65653;53.106;18.046;2023-05-07T03:03:18;39.60;;;21.40;;
76729;SDS011;65653;53.106;18.046;2023-05-07T03:05:44;39.10;;;21.30;;
76729;SDS011;65653;53.106;18.046;2023-05-07T03:08:11;43.80;;;21.90;;
76729;SDS011;65653;53.106;18.046;2023-05-07T03:10:37;47.50;;;22.40;;
76729;SDS011;65653;53.106;18.046;2023-05-07T03:13:04;44.10;;;22.60;;
76729;SDS011;65653;53.106;18.046;2023-05-07T03:15:31;40.60;;;21.50;;
76729;SDS011;65653;53.106;18.046;2023-05-07T03:17:57;43.10;;;22.80;;
76729;SDS011;65653;53.106;18.046;2023-05-07T03:20:24;40.90;;;22.00;;
76729;SDS011;65653;53.106;18.046;2023-05-07T03:22:51;44.50;;;22.40;;
76729;SDS011;65653;53.106;18.046;2023-05-07T03:25:17;39.80;;;22.00;;
76729;SDS011;65653;53.106;18.046;2023-05-07T03:27:44;39.30;;;21.90;;
76729;SDS011;65653;53.106;18.046;2023-05-07T03:30:11;41.50;;;21.50;;
76729;SDS011;65653;53.106;18.046;2023-05-07T03:32:38;42.00;;;22.80;;
76729;SDS011;65653;53.106;18.046;2023-05-07T03:35:06;40.30;;;22.40;;
76729;SDS011;65653;53.106;18.046;2023-05-07T03:37:33;42.30;;;23.20;;
76729;SDS011;65653;53.106;18.046;2023-05-07T03:40:01;40.00;;;22.40;;
76729;SDS011;65653;53.106;18.046;2023-05-07T03:42:28;45.70;;;26.40;;
76729;SDS011;65653;53.106;18.046;2023-05-07T03:44:55;44.50;;;26.50;;
76729;SDS011;65653;53.106;18.046;2023-05-07T03:47:21;48.10;;;28.00;;
76729;SDS011;65653;53.106;18.046;2023-05-07T03:49:48;51.70;;;30.50;;
76729;SDS011;65653;53.106;18.046;2023-05-07T03:52:15;56.80;;;34.20;;
76729;SDS011;65653;53.106;18.046;2023-05-07T03:54:42;56.10;;;33.60;;
76729;SDS011;65653;53.106;18.046;2023-05-07T03:57:09;57.20;;;34.70;;
76729;SDS011;65653;53.106;18.046;2023-05-07T03:59:35;52.90;;;32.10;;
76729;SDS011;65653;53.106;18.046;2023-05-07T04:02:02;58.50;;;32.90;;
76729;SDS011;65653;53.106;18.046;2023-05-07T04:04:28;43.60;;;28.90;;
76729;SDS011;65653;53.106;18.046;2023-05-07T04:06:58;57.10;;;34.30;;
76729;SDS011;65653;53.106;18.046;2023-05-07T04:09:29;57.40;;;36.50;;
76729;SDS011;65653;53.106;18.046;2023-05-07T04:11:55;58.70;;;35.00;;
76729;SDS011;65653;53.106;18.046;2023-05-07T04:14:22;56.50;;;34.50;;
76729;SDS011;65653;53.106;18.046;2023-05-07T04:16:48;53.70;;;33.30;;
76729;SDS011;65653;53.106;18.046;2023-05-07T04:19:15;48.20;;;28.50;;
76729;SDS011;65653;53.106;18.046;2023-05-07T04:21:41;39.40;;;26.40;;
76729;SDS011;65653;53.106;18.046;2023-05-07T04:24:08;37.60;;;24.20;;
76729;SDS011;65653;53.106;18.046;2023-05-07T04:26:34;38.60;;;22.40;;
76729;SDS011;65653;53.106;18.046;2023-05-07T04:29:01;35.90;;;22.40;;
76729;SDS011;65653;53.106;18.046;2023-05-07T04:31:28;38.90;;;22.80;;
76729;SDS011;65653;53.106;18.046;2023-05-07T04:33:54;35.90;;;21.00;;
76729;SDS011;65653;53.106;18.046;2023-05-07T04:36:21;38.20;;;23.10;;
76729;SDS011;65653;53.106;18.046;2023-05-07T04:38:48;36.80;;;23.20;;
76729;SDS011;65653;53.106;18.046;2023-05-07T04:41:14;38.10;;;23.30;;
76729;SDS011;65653;53.106;18.046;2023-05-07T04:43:41;34.30;;;22.20;;
76729;SDS011;65653;53.106;18.046;2023-05-07T04:46:08;33.80;;;20.90;;
76729;SDS011;65653;53.106;18.046;2023-05-07T04:48:35;32.80;;;19.90;;
76729;SDS011;65653;53.106;18.046;2023-05-07T04:51:02;29.40;;;18.70;;
76729;SDS011;65653;53.106;18.046;2023-05-07T04:53:29;28.10;;;16.40;;
76729;SDS011;65653;53.106;18.046;2023-05-07T04:55:57;21.00;;;13.20;;
76729;SDS011;65653;53.106;18.046;2023-05-07T04:58:24;20.80;;;14.50;;
76729;SDS011;65653;53.106;18.046;2023-05-07T05:00:50;22.60;;;13.00;;
76729;SDS011;65653;53.106;18.046;2023-05-07T05:03:18;22.90;;;15.10;;
76729;SDS011;65653;53.106;18.046;2023-05-07T05:05:44;18.10;;;11.10;;
76729;SDS011;65653;53.106;18.046;2023-05-07T05:08:11;24.00;;;14.80;;
76729;SDS011;65653;53.106;18.046;2023-05-07T05:10:37;23.90;;;14.60;;
76729;SDS011;65653;53.106;18.046;2023-05-07T05:13:04;21.80;;;13.70;;
76729;SDS011;65653;53.106;18.046;2023-05-07T05:15:31;21.10;;;13.70;;
76729;SDS011;65653;53.106;18.046;2023-05-07T05:17:57;19.00;;;12.80;;
76729;SDS011;65653;53.106;18.046;2023-05-07T05:20:24;22.00;;;13.00;;
76729;SDS011;65653;53.106;18.046;2023-05-07T05:22:50;19.80;;;12.70;;
76729;SDS011;65653;53.106;18.046;2023-05-07T05:25:17;17.10;;;12.00;;
76729;SDS011;65653;53.106;18.046;2023-05-07T05:27:44;16.00;;;9.70;;
76729;SDS011;65653;53.106;18.046;2023-05-07T05:30:11;21.10;;;11.50;;
76729;SDS011;65653;53.106;18.046;2023-05-07T05:32:38;18.00;;;11.40;;
76729;SDS011;65653;53.106;18.046;2023-05-07T05:35:04;22.00;;;12.60;;
76729;SDS011;65653;53.106;18.046;2023-05-07T05:37:32;17.70;;;11.60;;
76729;SDS011;65653;53.106;18.046;2023-05-07T05:39:58;18.10;;;10.60;;
76729;SDS011;65653;53.106;18.046;2023-05-07T05:42:25;17.60;;;10.80;;
76729;SDS011;65653;53.106;18.046;2023-05-07T05:44:52;17.60;;;11.70;;
76729;SDS011;65653;53.106;18.046;2023-05-07T05:47:18;16.40;;;10.50;;
76729;SDS011;65653;53.106;18.046;2023-05-07T05:49:45;16.60;;;9.80;;
76729;SDS011;65653;53.106;18.046;2023-05-07T05:52:12;17.80;;;9.90;;
76729;SDS011;65653;53.106;18.046;2023-05-07T05:54:40;15.70;;;9.80;;
76729;SDS011;65653;53.106;18.046;2023-05-07T05:57:06;14.30;;;9.80;;
76729;SDS011;65653;53.106;18.046;2023-05-07T05:59:33;16.00;;;9.70;;
76729;SDS011;65653;53.106;18.046;2023-05-07T06:01:59;13.60;;;8.70;;
76729;SDS011;65653;53.106;18.046;2023-05-07T06:04:26;15.10;;;9.50;;
76729;SDS011;65653;53.106;18.046;2023-05-07T06:06:52;13.40;;;8.50;;
76729;SDS011;65653;53.106;18.046;2023-05-07T06:09:19;17.50;;;10.50;;
76729;SDS011;65653;53.106;18.046;2023-05-07T06:11:46;16.40;;;9.50;;
76729;SDS011;65653;53.106;18.046;2023-05-07T06:14:13;13.90;;;8.60;;
76729;SDS011;65653;53.106;18.046;2023-05-07T06:16:39;11.90;;;7.60;;
76729;SDS011;65653;53.106;18.046;2023-05-07T06:19:06;8.40;;;5.50;;
76729;SDS011;65653;53.106;18.046;2023-05-07T06:21:32;12.40;;;7.50;;
76729;SDS011;65653;53.106;18.046;2023-05-07T06:23:58;12.80;;;7.70;;
76729;SDS011;65653;53.106;18.046;2023-05-07T06:26:25;10.20;;;6.70;;
76729;SDS011;65653;53.106;18.046;2023-05-07T06:28:52;8.70;;;7.20;;
76729;SDS011;65653;53.106;18.046;2023-05-07T06:31:20;6.60;;;4.40;;
76729;SDS011;65653;53.106;18.046;2023-05-07T06:33:46;7.40;;;5.50;;
76729;SDS011;65653;53.106;18.046;2023-05-07T06:36:13;9.90;;;6.90;;
76729;SDS011;65653;53.106;18.046;2023-05-07T06:38:39;11.80;;;5.70;;
76729;SDS011;65653;53.106;18.046;2023-05-07T06:41:06;11.10;;;6.30;;
76729;SDS011;65653;53.106;18.046;2023-05-07T06:43:33;8.70;;;6.20;;
76729;SDS011;65653;53.106;18.046;2023-05-07T06:46:00;8.20;;;5.80;;
76729;SDS011;65653;53.106;18.046;2023-05-07T06:48:26;8.20;;;5.40;;
76729;SDS011;65653;53.106;18.046;2023-05-07T06:50:53;7.90;;;5.20;;
76729;SDS011;65653;53.106;18.046;2023-05-07T06:53:21;6.70;;;4.20;;
76729;SDS011;65653;53.106;18.046;2023-05-07T06:55:48;5.40;;;3.70;;
76729;SDS011;65653;53.106;18.046;2023-05-07T06:58:14;6.20;;;3.80;;
76729;SDS011;65653;53.106;18.046;2023-05-07T07:00:41;7.10;;;4.40;;
76729;SDS011;65653;53.106;18.046;2023-05-07T07:03:07;8.90;;;5.50;;
76729;SDS011;65653;53.106;18.046;2023-05-07T07:05:34;5.10;;;2.90;;
76729;SDS011;65653;53.106;18.046;2023-05-07T07:08:00;7.50;;;4.80;;
76729;SDS011;65653;53.106;18.046;2023-05-07T07:10:27;9.20;;;5.60;;
76729;SDS011;65653;53.106;18.046;2023-05-07T07:12:55;7.40;;;4.10;;
76729;SDS011;65653;53.106;18.046;2023-05-07T07:15:22;9.50;;;5.70;;
76729;SDS011;65653;53.106;18.046;2023-05-07T07:17:51;9.10;;;5.30;;
76729;SDS011;65653;53.106;18.046;2023-05-07T07:20:18;6.00;;;3.90;;
76729;SDS011;65653;53.106;18.046;2023-05-07T07:22:44;7.60;;;5.20;;
76729;SDS011;65653;53.106;18.046;2023-05-07T07:25:11;7.20;;;5.30;;
76729;SDS011;65653;53.106;18.046;2023-05-07T07:27:38;9.10;;;5.30;;
76729;SDS011;65653;53.106;18.046;2023-05-07T07:30:06;8.40;;;5.90;;
76729;SDS011;65653;53.106;18.046;2023-05-07T07:32:34;5.00;;;3.30;;
76729;SDS011;65653;53.106;18.046;2023-05-07T07:35:01;5.70;;;4.10;;
76729;SDS011;65653;53.106;18.046;2023-05-07T07:37:27;6.70;;;4.10;;
76729;SDS011;65653;53.106;18.046;2023-05-07T07:39:54;7.90;;;4.50;;
76729;SDS011;65653;53.106;18.046;2023-05-07T07:42:21;3.80;;;3.30;;
76729;SDS011;65653;53.106;18.046;2023-05-07T07:44:48;6.30;;;4.60;;
76729;SDS011;65653;53.106;18.046;2023-05-07T07:47:15;5.60;;;3.70;;
76729;SDS011;65653;53.106;18.046;2023-05-07T07:49:41;5.20;;;3.40;;
76729;SDS011;65653;53.106;18.046;2023-05-07T07:52:08;5.70;;;3.50;;
76729;SDS011;65653;53.106;18.046;2023-05-07T07:54:35;4.00;;;2.70;;
76729;SDS011;65653;53.106;18.046;2023-05-07T07:57:01;3.70;;;2.80;;
76729;SDS011;65653;53.106;18.046;2023-05-07T07:59:27;4.20;;;2.70;;
76729;SDS011;65653;53.106;18.046;2023-05-07T08:01:54;4.00;;;2.30;;
76729;SDS011;65653;53.106;18.046;2023-05-07T08:04:23;3.90;;;2.80;;
76729;SDS011;65653;53.106;18.046;2023-05-07T08:06:49;3.10;;;2.10;;
76729;SDS011;65653;53.106;18.046;2023-05-07T08:09:15;2.80;;;1.90;;
76729;SDS011;65653;53.106;18.046;2023-05-07T08:11:42;4.10;;;2.50;;
76729;SDS011;65653;53.106;18.046;2023-05-07T08:14:08;5.80;;;2.40;;
76729;SDS011;65653;53.106;18.046;2023-05-07T08:16:35;4.00;;;2.70;;
76729;SDS011;65653;53.106;18.046;2023-05-07T08:19:02;4.70;;;2.60;;
76729;SDS011;65653;53.106;18.046;2023-05-07T08:21:28;3.80;;;2.20;;
76729;SDS011;65653;53.106;18.046;2023-05-07T08:23:57;3.30;;;2.50;;
76729;SDS011;65653;53.106;18.046;2023-05-07T08:26:24;5.50;;;2.80;;
76729;SDS011;65653;53.106;18.046;2023-05-07T08:28:50;3.00;;;2.70;;
76729;SDS011;65653;53.106;18.046;2023-05-07T08:31:17;2.60;;;2.00;;
76729;SDS011;65653;53.106;18.046;2023-05-07T08:33:43;3.60;;;2.60;;
76729;SDS011;65653;53.106;18.046;2023-05-07T08:36:10;4.10;;;2.50;;
76729;SDS011;65653;53.106;18.046;2023-05-07T08:38:36;4.30;;;2.00;;
76729;SDS011;65653;53.106;18.046;2023-05-07T08:41:03;3.70;;;2.00;;
76729;SDS011;65653;53.106;18.046;2023-05-07T08:43:29;3.90;;;2.10;;
76729;SDS011;65653;53.106;18.046;2023-05-07T08:45:58;3.80;;;2.00;;
76729;SDS011;65653;53.106;18.046;2023-05-07T08:48:28;4.20;;;2.20;;
76729;SDS011;65653;53.106;18.046;2023-05-07T08:50:58;4.00;;;2.80;;
76729;SDS011;65653;53.106;18.046;2023-05-07T08:53:25;2.60;;;2.30;;
76729;SDS011;65653;53.106;18.046;2023-05-07T08:55:52;6.70;;;2.90;;
76729;SDS011;65653;53.106;18.046;2023-05-07T08:58:19;3.20;;;2.20;;
76729;SDS011;65653;53.106;18.046;2023-05-07T09:00:46;2.60;;;1.90;;
76729;SDS011;65653;53.106;18.046;2023-05-07T09:03:13;2.60;;;2.40;;
76729;SDS011;65653;53.106;18.046;2023-05-07T09:05:40;3.90;;;2.60;;
76729;SDS011;65653;53.106;18.046;2023-05-07T09:08:07;3.80;;;1.90;;
76729;SDS011;65653;53.106;18.046;2023-05-07T09:10:34;5.00;;;2.40;;
76729;SDS011;65653;53.106;18.046;2023-05-07T09:13:02;2.10;;;1.70;;
76729;SDS011;65653;53.106;18.046;2023-05-07T09:15:29;2.50;;;1.50;;
76729;SDS011;65653;53.106;18.046;2023-05-07T09:17:59;3.50;;;2.10;;
76729;SDS011;65653;53.106;18.046;2023-05-07T09:20:29;2.80;;;1.80;;
76729;SDS011;65653;53.106;18.046;2023-05-07T09:22:56;2.30;;;2.00;;
76729;SDS011;65653;53.106;18.046;2023-05-07T09:25:30;1.70;;;1.60;;
76729;SDS011;65653;53.106;18.046;2023-05-07T09:27:58;2.40;;;2.20;;
76729;SDS011;65653;53.106;18.046;2023-05-07T09:30:30;2.50;;;1.60;;
76729;SDS011;65653;53.106;18.046;2023-05-07T09:32:58;1.90;;;1.80;;
76729;SDS011;65653;53.106;18.046;2023-05-07T09:35:26;3.60;;;2.10;;
76729;SDS011;65653;53.106;18.046;2023-05-07T09:37:56;2.80;;;2.10;;
76729;SDS011;65653;53.106;18.046;2023-05-07T09:40:27;2.70;;;1.70;;
76729;SDS011;65653;53.106;18.046;2023-05-07T09:42:55;3.70;;;2.20;;
76729;SDS011;65653;53.106;18.046;2023-05-07T09:45:26;3.00;;;2.30;;
76729;SDS011;65653;53.106;18.046;2023-05-07T09:47:56;5.00;;;2.20;;
76729;SDS011;65653;53.106;18.046;2023-05-07T09:50:25;3.30;;;1.90;;
76729;SDS011;65653;53.106;18.046;2023-05-07T09:52:58;2.00;;;1.40;;
76729;SDS011;65653;53.106;18.046;2023-05-07T09:55:25;3.00;;;2.60;;
76729;SDS011;65653;53.106;18.046;2023-05-07T09:57:52;2.50;;;2.00;;
76729;SDS011;65653;53.106;18.046;2023-05-07T10:00:19;3.60;;;2.20;;
76729;SDS011;65653;53.106;18.046;2023-05-07T10:02:51;3.90;;;2.10;;
76729;SDS011;65653;53.106;18.046;2023-05-07T10:05:19;3.10;;;2.80;;
76729;SDS011;65653;53.106;18.046;2023-05-07T10:07:48;4.10;;;2.30;;
76729;SDS011;65653;53.106;18.046;2023-05-07T10:10:17;3.00;;;2.40;;
76729;SDS011;65653;53.106;18.046;2023-05-07T10:12:44;3.70;;;2.50;;
76729;SDS011;65653;53.106;18.046;2023-05-07T10:15:11;2.60;;;1.90;;
76729;SDS011;65653;53.106;18.046;2023-05-07T10:20:07;3.20;;;2.10;;
76729;SDS011;65653;53.106;18.046;2023-05-07T10:22:38;3.60;;;2.00;;
76729;SDS011;65653;53.106;18.046;2023-05-07T10:25:34;3.90;;;3.30;;
76729;SDS011;65653;53.106;18.046;2023-05-07T10:28:05;4.50;;;1.70;;
76729;SDS011;65653;53.106;18.046;2023-05-07T10:33:28;2.80;;;2.00;;
76729;SDS011;65653;53.106;18.046;2023-05-07T10:35:57;3.00;;;1.50;;
76729;SDS011;65653;53.106;18.046;2023-05-07T10:40:54;2.20;;;2.00;;
76729;SDS011;65653;53.106;18.046;2023-05-07T10:43:20;1.90;;;1.60;;
76729;SDS011;65653;53.106;18.046;2023-05-07T10:51:32;3.00;;;2.00;;
76729;SDS011;65653;53.106;18.046;2023-05-07T10:56:37;2.70;;;1.80;;
76729;SDS011;65653;53.106;18.046;2023-05-07T11:01:50;2.10;;;1.70;;
76729;SDS011;65653;53.106;18.046;2023-05-07T11:04:24;2.90;;;2.60;;
76729;SDS011;65653;53.106;18.046;2023-05-07T11:12:45;2.70;;;1.90;;
76729;SDS011;65653;53.106;18.046;2023-05-07T11:15:04;3.00;;;1.40;;
76729;SDS011;65653;53.106;18.046;2023-05-07T11:17:51;2.30;;;2.00;;
76729;SDS011;65653;53.106;18.046;2023-05-07T11:26:00;2.00;;;1.70;;
76729;SDS011;65653;53.106;18.046;2023-05-07T11:28:29;4.10;;;1.70;;
76729;SDS011;65653;53.106;18.046;2023-05-07T11:30:57;3.00;;;1.70;;
76729;SDS011;65653;53.106;18.046;2023-05-07T11:33:23;1.70;;;1.60;;
76729;SDS011;65653;53.106;18.046;2023-05-07T11:35:53;1.50;;;1.40;;
76729;SDS011;65653;53.106;18.046;2023-05-07T11:38:20;2.80;;;1.50;;
76729;SDS011;65653;53.106;18.046;2023-05-07T11:40:50;1.60;;;1.40;;
76729;SDS011;65653;53.106;18.046;2023-05-07T11:43:27;2.90;;;1.90;;
76729;SDS011;65653;53.106;18.046;2023-05-07T11:45:53;1.80;;;1.70;;
76729;SDS011;65653;53.106;18.046;2023-05-07T11:48:20;1.50;;;1.40;;
76729;SDS011;65653;53.106;18.046;2023-05-07T11:51:00;3.80;;;1.70;;
76729;SDS011;65653;53.106;18.046;2023-05-07T11:53:33;2.30;;;1.70;;
76729;SDS011;65653;53.106;18.046;2023-05-07T11:56:06;1.70;;;1.60;;
76729;SDS011;65653;53.106;18.046;2023-05-07T11:58:34;2.20;;;1.60;;
76729;SDS011;65653;53.106;18.046;2023-05-07T12:01:01;1.80;;;1.40;;
76729;SDS011;65653;53.106;18.046;2023-05-07T12:03:28;1.70;;;1.60;;
76729;SDS011;65653;53.106;18.046;2023-05-07T12:05:54;3.40;;;1.50;;
76729;SDS011;65653;53.106;18.046;2023-05-07T12:08:21;2.00;;;1.80;;
76729;SDS011;65653;53.106;18.046;2023-05-07T12:10:49;2.70;;;1.40;;
76729;SDS011;65653;53.106;18.046;2023-05-07T12:13:18;2.60;;;1.70;;
76729;SDS011;65653;53.106;18.046;2023-05-07T12:15:46;1.50;;;1.40;;
76729;SDS011;65653;53.106;18.046;2023-05-07T12:18:12;1.50;;;1.30;;
76729;SDS011;65653;53.106;18.046;2023-05-07T12:20:39;1.80;;;1.30;;
76729;SDS011;65653;53.106;18.046;2023-05-07T12:23:06;2.30;;;1.30;;
76729;SDS011;65653;53.106;18.046;2023-05-07T12:25:40;3.10;;;1.60;;
76729;SDS011;65653;53.106;18.046;2023-05-07T12:28:13;1.80;;;1.50;;
76729;SDS011;65653;53.106;18.046;2023-05-07T12:30:46;3.00;;;1.30;;
76729;SDS011;65653;53.106;18.046;2023-05-07T12:33:22;1.50;;;1.40;;
76729;SDS011;65653;53.106;18.046;2023-05-07T12:35:52;1.60;;;1.30;;
76729;SDS011;65653;53.106;18.046;2023-05-07T12:38:20;1.40;;;1.30;;
76729;SDS011;65653;53.106;18.046;2023-05-07T12:40:48;1.60;;;1.30;;
76729;SDS011;65653;53.106;18.046;2023-05-07T12:43:19;1.60;;;1.50;;
76729;SDS011;65653;53.106;18.046;2023-05-07T12:45:47;1.50;;;1.40;;
76729;SDS011;65653;53.106;18.046;2023-05-07T12:48:15;1.90;;;1.50;;
76729;SDS011;65653;53.106;18.046;2023-05-07T12:50:42;1.90;;;1.20;;
76729;SDS011;65653;53.106;18.046;2023-05-07T12:53:10;1.40;;;1.30;;
76729;SDS011;65653;53.106;18.046;2023-05-07T12:55:42;1.10;;;1.00;;
76729;SDS011;65653;53.106;18.046;2023-05-07T12:58:20;1.30;;;1.20;;
76729;SDS011;65653;53.106;18.046;2023-05-07T13:00:51;1.30;;;1.10;;
76729;SDS011;65653;53.106;18.046;2023-05-07T13:03:23;1.90;;;1.20;;
76729;SDS011;65653;53.106;18.046;2023-05-07T13:05:57;1.60;;;1.30;;
76729;SDS011;65653;53.106;18.046;2023-05-07T13:11:03;1.60;;;1.20;;
76729;SDS011;65653;53.106;18.046;2023-05-07T13:13:31;1.60;;;1.50;;
76729;SDS011;65653;53.106;18.046;2023-05-07T13:15:59;1.50;;;1.30;;
76729;SDS011;65653;53.106;18.046;2023-05-07T13:18:26;1.40;;;1.20;;
76729;SDS011;65653;53.106;18.046;2023-05-07T13:20:56;1.60;;;1.30;;
76729;SDS011;65653;53.106;18.046;2023-05-07T13:23:22;1.10;;;1.00;;
76729;SDS011;65653;53.106;18.046;2023-05-07T13:25:49;1.40;;;1.30;;
76729;SDS011;65653;53.106;18.046;2023-05-07T13:28:16;1.20;;;1.10;;
76729;SDS011;65653;53.106;18.046;2023-05-07T13:30:44;1.70;;;1.50;;
76729;SDS011;65653;53.106;18.046;2023-05-07T13:33:10;1.00;;;0.90;;
76729;SDS011;65653;53.106;18.046;2023-05-07T13:35:37;0.90;;;0.90;;
76729;SDS011;65653;53.106;18.046;2023-05-07T13:38:03;1.70;;;1.40;;
76729;SDS011;65653;53.106;18.046;2023-05-07T13:40:30;2.00;;;1.30;;
76729;SDS011;65653;53.106;18.046;2023-05-07T13:42:58;1.80;;;1.10;;
76729;SDS011;65653;53.106;18.046;2023-05-07T13:45:27;2.20;;;1.20;;
76729;SDS011;65653;53.106;18.046;2023-05-07T13:47:57;2.40;;;1.40;;
76729;SDS011;65653;53.106;18.046;2023-05-07T13:50:24;1.50;;;1.20;;
76729;SDS011;65653;53.106;18.046;2023-05-07T13:52:53;1.40;;;1.30;;
76729;SDS011;65653;53.106;18.046;2023-05-07T13:55:21;1.80;;;1.60;;
76729;SDS011;65653;53.106;18.046;2023-05-07T13:57:56;1.40;;;1.30;;
76729;SDS011;65653;53.106;18.046;2023-05-07T14:00:27;1.30;;;1.10;;
76729;SDS011;65653;53.106;18.046;2023-05-07T14:02:54;3.30;;;1.40;;
76729;SDS011;65653;53.106;18.046;2023-05-07T14:05:22;1.20;;;1.00;;
76729;SDS011;65653;53.106;18.046;2023-05-07T14:07:52;4.00;;;1.40;;
76729;SDS011;65653;53.106;18.046;2023-05-07T14:10:19;1.70;;;1.10;;
76729;SDS011;65653;53.106;18.046;2023-05-07T14:12:46;1.30;;;1.10;;
76729;SDS011;65653;53.106;18.046;2023-05-07T14:15:13;2.90;;;1.40;;
76729;SDS011;65653;53.106;18.046;2023-05-07T14:17:40;1.50;;;1.30;;
76729;SDS011;65653;53.106;18.046;2023-05-07T14:20:06;1.90;;;1.30;;
76729;SDS011;65653;53.106;18.046;2023-05-07T14:22:34;2.00;;;1.40;;
76729;SDS011;65653;53.106;18.046;2023-05-07T14:25:00;1.80;;;1.20;;
76729;SDS011;65653;53.106;18.046;2023-05-07T14:27:27;1.40;;;1.30;;
76729;SDS011;65653;53.106;18.046;2023-05-07T14:29:54;1.60;;;1.20;;
76729;SDS011;65653;53.106;18.046;2023-05-07T14:32:21;2.00;;;1.40;;
76729;SDS011;65653;53.106;18.046;2023-05-07T14:34:48;1.40;;;1.10;;
76729;SDS011;65653;53.106;18.046;2023-05-07T14:37:15;1.30;;;1.10;;
76729;SDS011;65653;53.106;18.046;2023-05-07T14:39:41;1.10;;;1.10;;
76729;SDS011;65653;53.106;18.046;2023-05-07T14:42:08;1.40;;;1.20;;
76729;SDS011;65653;53.106;18.046;2023-05-07T14:44:35;1.20;;;1.10;;
76729;SDS011;65653;53.106;18.046;2023-05-07T14:47:02;1.30;;;1.20;;
76729;SDS011;65653;53.106;18.046;2023-05-07T14:49:29;1.20;;;1.00;;
76729;SDS011;65653;53.106;18.046;2023-05-07T14:51:57;1.70;;;1.10;;
76729;SDS011;65653;53.106;18.046;2023-05-07T14:54:26;1.40;;;1.10;;
76729;SDS011;65653;53.106;18.046;2023-05-07T14:56:52;2.10;;;1.30;;
76729;SDS011;65653;53.106;18.046;2023-05-07T14:59:19;1.60;;;1.30;;